sensor_id;sensor_type;location;lat;lon;timestamp;P1;durP1;ratioP1;P2;durP2;ratioP2
46551;SDS011;32278;51.810;4.712;2023-08-21T00:01:21;6.95;;;1.63;;
46551;SDS011;32278;51.810;4.712;2023-08-21T00:03:47;5.93;;;2.00;;
46551;SDS011;32278;51.810;4.712;2023-08-21T00:06:12;5.63;;;1.45;;
46551;SDS011;32278;51.810;4.712;2023-08-21T00:08:39;5.72;;;1.00;;
46551;SDS011;32278;51.810;4.712;2023-08-21T00:11:04;4.07;;;1.77;;
46551;SDS011;32278;51.810;4.712;2023-08-21T00:13:30;3.78;;;1.45;;
46551;SDS011;32278;51.810;4.712;2023-08-21T00:15:56;6.35;;;1.98;;
46551;SDS011;32278;51.810;4.712;2023-08-21T00:18:22;4.82;;;1.70;;
46551;SDS011;32278;51.810;4.712;2023-08-21T00:20:48;4.22;;;1.80;;
46551;SDS011;32278;51.810;4.712;2023-08-21T00:23:14;5.60;;;1.42;;
46551;SDS011;32278;51.810;4.712;2023-08-21T00:25:42;5.82;;;1.65;;
46551;SDS011;32278;51.810;4.712;2023-08-21T00:28:08;5.97;;;2.10;;
46551;SDS011;32278;51.810;4.712;2023-08-21T00:30:33;5.57;;;1.67;;
46551;SDS011;32278;51.810;4.712;2023-08-21T00:32:59;6.70;;;2.20;;
46551;SDS011;32278;51.810;4.712;2023-08-21T00:35:25;4.95;;;1.48;;
46551;SDS011;32278;51.810;4.712;2023-08-21T00:37:51;4.60;;;1.95;;
46551;SDS011;32278;51.810;4.712;2023-08-21T00:40:17;9.45;;;1.92;;
46551;SDS011;32278;51.810;4.712;2023-08-21T00:42:43;6.00;;;1.48;;
46551;SDS011;32278;51.810;4.712;2023-08-21T00:45:09;4.15;;;1.88;;
46551;SDS011;32278;51.810;4.712;2023-08-21T00:47:36;3.50;;;1.15;;
46551;SDS011;32278;51.810;4.712;2023-08-21T00:50:02;7.18;;;1.60;;
46551;SDS011;32278;51.810;4.712;2023-08-21T00:52:29;4.07;;;1.45;;
46551;SDS011;32278;51.810;4.712;2023-08-21T00:54:56;6.93;;;2.20;;
46551;SDS011;32278;51.810;4.712;2023-08-21T00:57:22;6.68;;;2.30;;
46551;SDS011;32278;51.810;4.712;2023-08-21T00:59:48;5.93;;;1.73;;
46551;SDS011;32278;51.810;4.712;2023-08-21T01:02:15;5.93;;;1.70;;
46551;SDS011;32278;51.810;4.712;2023-08-21T01:04:41;5.55;;;2.08;;
46551;SDS011;32278;51.810;4.712;2023-08-21T01:07:07;7.10;;;2.03;;
46551;SDS011;32278;51.810;4.712;2023-08-21T01:12:12;8.50;;;2.33;;
46551;SDS011;32278;51.810;4.712;2023-08-21T01:15:23;7.43;;;2.10;;
46551;SDS011;32278;51.810;4.712;2023-08-21T01:17:30;4.82;;;1.98;;
46551;SDS011;32278;51.810;4.712;2023-08-21T01:19:56;6.32;;;2.13;;
46551;SDS011;32278;51.810;4.712;2023-08-21T01:22:26;2.75;;;1.23;;
46551;SDS011;32278;51.810;4.712;2023-08-21T01:24:52;7.47;;;2.28;;
46551;SDS011;32278;51.810;4.712;2023-08-21T01:27:18;3.10;;;2.08;;
46551;SDS011;32278;51.810;4.712;2023-08-21T01:29:46;4.13;;;1.70;;
46551;SDS011;32278;51.810;4.712;2023-08-21T01:32:26;2.95;;;1.80;;
46551;SDS011;32278;51.810;4.712;2023-08-21T01:34:53;10.52;;;2.22;;
46551;SDS011;32278;51.810;4.712;2023-08-21T01:37:20;5.13;;;1.75;;
46551;SDS011;32278;51.810;4.712;2023-08-21T01:39:46;8.45;;;2.05;;
46551;SDS011;32278;51.810;4.712;2023-08-21T01:42:12;7.47;;;1.95;;
46551;SDS011;32278;51.810;4.712;2023-08-21T01:44:38;10.35;;;1.90;;
46551;SDS011;32278;51.810;4.712;2023-08-21T01:47:04;5.78;;;1.95;;
46551;SDS011;32278;51.810;4.712;2023-08-21T01:49:31;8.95;;;1.80;;
46551;SDS011;32278;51.810;4.712;2023-08-21T01:51:57;4.57;;;1.90;;
46551;SDS011;32278;51.810;4.712;2023-08-21T01:54:22;7.50;;;1.95;;
46551;SDS011;32278;51.810;4.712;2023-08-21T01:56:48;5.45;;;1.80;;
46551;SDS011;32278;51.810;4.712;2023-08-21T01:59:15;5.28;;;1.77;;
46551;SDS011;32278;51.810;4.712;2023-08-21T02:01:42;7.32;;;1.75;;
46551;SDS011;32278;51.810;4.712;2023-08-21T02:04:08;4.95;;;1.75;;
46551;SDS011;32278;51.810;4.712;2023-08-21T02:06:34;6.47;;;1.48;;
46551;SDS011;32278;51.810;4.712;2023-08-21T02:09:00;5.07;;;1.80;;
46551;SDS011;32278;51.810;4.712;2023-08-21T02:11:26;6.07;;;2.28;;
46551;SDS011;32278;51.810;4.712;2023-08-21T02:13:52;8.48;;;2.22;;
46551;SDS011;32278;51.810;4.712;2023-08-21T02:16:18;6.20;;;1.50;;
46551;SDS011;32278;51.810;4.712;2023-08-21T02:18:46;7.80;;;1.70;;
46551;SDS011;32278;51.810;4.712;2023-08-21T02:21:12;6.20;;;1.73;;
46551;SDS011;32278;51.810;4.712;2023-08-21T02:23:38;4.63;;;1.60;;
46551;SDS011;32278;51.810;4.712;2023-08-21T02:26:04;6.43;;;1.92;;
46551;SDS011;32278;51.810;4.712;2023-08-21T02:28:30;4.70;;;1.63;;
46551;SDS011;32278;51.810;4.712;2023-08-21T02:30:56;6.25;;;2.15;;
46551;SDS011;32278;51.810;4.712;2023-08-21T02:33:22;3.00;;;1.60;;
46551;SDS011;32278;51.810;4.712;2023-08-21T02:35:48;4.03;;;1.60;;
46551;SDS011;32278;51.810;4.712;2023-08-21T02:38:14;8.07;;;1.73;;
46551;SDS011;32278;51.810;4.712;2023-08-21T02:40:40;7.03;;;2.00;;
46551;SDS011;32278;51.810;4.712;2023-08-21T02:43:06;5.70;;;2.22;;
46551;SDS011;32278;51.810;4.712;2023-08-21T02:45:32;6.63;;;2.10;;
46551;SDS011;32278;51.810;4.712;2023-08-21T02:47:58;6.60;;;1.83;;
46551;SDS011;32278;51.810;4.712;2023-08-21T02:50:24;7.25;;;1.98;;
46551;SDS011;32278;51.810;4.712;2023-08-21T02:52:50;6.88;;;1.73;;
46551;SDS011;32278;51.810;4.712;2023-08-21T02:55:16;5.80;;;1.60;;
46551;SDS011;32278;51.810;4.712;2023-08-21T02:57:42;3.95;;;1.65;;
46551;SDS011;32278;51.810;4.712;2023-08-21T03:00:09;4.70;;;1.50;;
46551;SDS011;32278;51.810;4.712;2023-08-21T03:02:36;6.60;;;2.10;;
46551;SDS011;32278;51.810;4.712;2023-08-21T03:05:03;11.57;;;2.13;;
46551;SDS011;32278;51.810;4.712;2023-08-21T03:07:29;2.83;;;1.40;;
46551;SDS011;32278;51.810;4.712;2023-08-21T03:09:55;7.60;;;1.80;;
46551;SDS011;32278;51.810;4.712;2023-08-21T03:12:21;5.18;;;2.05;;
46551;SDS011;32278;51.810;4.712;2023-08-21T03:14:47;7.85;;;2.20;;
46551;SDS011;32278;51.810;4.712;2023-08-21T03:17:13;7.45;;;2.10;;
46551;SDS011;32278;51.810;4.712;2023-08-21T03:19:39;3.47;;;2.08;;
46551;SDS011;32278;51.810;4.712;2023-08-21T03:22:05;3.90;;;1.70;;
46551;SDS011;32278;51.810;4.712;2023-08-21T03:24:31;10.82;;;2.25;;
46551;SDS011;32278;51.810;4.712;2023-08-21T03:26:57;4.13;;;1.95;;
46551;SDS011;32278;51.810;4.712;2023-08-21T03:29:23;9.27;;;2.00;;
46551;SDS011;32278;51.810;4.712;2023-08-21T03:31:49;6.82;;;1.70;;
46551;SDS011;32278;51.810;4.712;2023-08-21T03:34:15;8.38;;;2.08;;
46551;SDS011;32278;51.810;4.712;2023-08-21T03:36:42;6.38;;;2.15;;
46551;SDS011;32278;51.810;4.712;2023-08-21T03:39:08;6.28;;;1.80;;
46551;SDS011;32278;51.810;4.712;2023-08-21T03:41:34;7.47;;;2.47;;
46551;SDS011;32278;51.810;4.712;2023-08-21T03:44:00;7.25;;;2.63;;
46551;SDS011;32278;51.810;4.712;2023-08-21T03:46:26;7.63;;;2.15;;
46551;SDS011;32278;51.810;4.712;2023-08-21T03:48:52;7.82;;;2.20;;
46551;SDS011;32278;51.810;4.712;2023-08-21T03:51:18;8.18;;;2.58;;
46551;SDS011;32278;51.810;4.712;2023-08-21T03:53:44;5.88;;;2.45;;
46551;SDS011;32278;51.810;4.712;2023-08-21T03:56:10;2.92;;;2.05;;
46551;SDS011;32278;51.810;4.712;2023-08-21T03:58:36;7.20;;;2.45;;
46551;SDS011;32278;51.810;4.712;2023-08-21T04:01:02;7.20;;;2.25;;
46551;SDS011;32278;51.810;4.712;2023-08-21T04:03:28;8.98;;;2.40;;
46551;SDS011;32278;51.810;4.712;2023-08-21T04:05:54;5.30;;;2.08;;
46551;SDS011;32278;51.810;4.712;2023-08-21T04:08:21;3.88;;;2.38;;
46551;SDS011;32278;51.810;4.712;2023-08-21T04:10:47;8.75;;;2.22;;
46551;SDS011;32278;51.810;4.712;2023-08-21T04:13:13;7.97;;;2.00;;
46551;SDS011;32278;51.810;4.712;2023-08-21T04:15:43;5.70;;;2.13;;
46551;SDS011;32278;51.810;4.712;2023-08-21T04:18:10;4.85;;;1.98;;
46551;SDS011;32278;51.810;4.712;2023-08-21T04:20:36;8.48;;;2.30;;
46551;SDS011;32278;51.810;4.712;2023-08-21T04:23:02;6.10;;;2.42;;
46551;SDS011;32278;51.810;4.712;2023-08-21T04:25:28;5.22;;;2.00;;
46551;SDS011;32278;51.810;4.712;2023-08-21T04:27:54;4.72;;;2.05;;
46551;SDS011;32278;51.810;4.712;2023-08-21T04:30:20;10.73;;;2.63;;
46551;SDS011;32278;51.810;4.712;2023-08-21T04:32:47;8.93;;;2.67;;
46551;SDS011;32278;51.810;4.712;2023-08-21T04:35:13;7.05;;;2.55;;
46551;SDS011;32278;51.810;4.712;2023-08-21T04:37:42;5.72;;;2.92;;
46551;SDS011;32278;51.810;4.712;2023-08-21T04:40:09;9.55;;;2.15;;
46551;SDS011;32278;51.810;4.712;2023-08-21T04:42:35;6.18;;;2.35;;
46551;SDS011;32278;51.810;4.712;2023-08-21T04:45:02;5.35;;;2.05;;
46551;SDS011;32278;51.810;4.712;2023-08-21T04:47:28;4.63;;;2.22;;
46551;SDS011;32278;51.810;4.712;2023-08-21T04:49:54;5.90;;;2.20;;
46551;SDS011;32278;51.810;4.712;2023-08-21T04:52:21;9.93;;;3.38;;
46551;SDS011;32278;51.810;4.712;2023-08-21T04:54:48;8.82;;;2.45;;
46551;SDS011;32278;51.810;4.712;2023-08-21T04:57:14;9.25;;;2.35;;
46551;SDS011;32278;51.810;4.712;2023-08-21T04:59:40;6.18;;;2.58;;
46551;SDS011;32278;51.810;4.712;2023-08-21T05:02:07;5.80;;;2.78;;
46551;SDS011;32278;51.810;4.712;2023-08-21T05:04:34;11.13;;;2.95;;
46551;SDS011;32278;51.810;4.712;2023-08-21T05:07:00;6.03;;;2.47;;
46551;SDS011;32278;51.810;4.712;2023-08-21T05:09:26;7.22;;;2.25;;
46551;SDS011;32278;51.810;4.712;2023-08-21T05:11:52;6.70;;;2.40;;
46551;SDS011;32278;51.810;4.712;2023-08-21T05:14:18;6.97;;;2.53;;
46551;SDS011;32278;51.810;4.712;2023-08-21T05:16:44;8.05;;;2.75;;
46551;SDS011;32278;51.810;4.712;2023-08-21T05:19:11;10.15;;;3.03;;
46551;SDS011;32278;51.810;4.712;2023-08-21T05:21:37;7.60;;;2.65;;
46551;SDS011;32278;51.810;4.712;2023-08-21T05:24:03;7.30;;;2.47;;
46551;SDS011;32278;51.810;4.712;2023-08-21T05:26:29;5.68;;;2.30;;
46551;SDS011;32278;51.810;4.712;2023-08-21T05:28:56;11.38;;;2.92;;
46551;SDS011;32278;51.810;4.712;2023-08-21T05:31:22;4.88;;;2.47;;
46551;SDS011;32278;51.810;4.712;2023-08-21T05:33:48;7.03;;;2.65;;
46551;SDS011;32278;51.810;4.712;2023-08-21T05:36:15;9.57;;;2.42;;
46551;SDS011;32278;51.810;4.712;2023-08-21T05:38:41;10.68;;;3.03;;
46551;SDS011;32278;51.810;4.712;2023-08-21T05:41:07;8.23;;;2.90;;
46551;SDS011;32278;51.810;4.712;2023-08-21T05:43:33;8.68;;;2.47;;
46551;SDS011;32278;51.810;4.712;2023-08-21T05:45:59;10.10;;;2.80;;
46551;SDS011;32278;51.810;4.712;2023-08-21T05:48:25;15.73;;;3.17;;
46551;SDS011;32278;51.810;4.712;2023-08-21T05:50:52;13.27;;;2.92;;
46551;SDS011;32278;51.810;4.712;2023-08-21T05:53:18;9.13;;;2.33;;
46551;SDS011;32278;51.810;4.712;2023-08-21T05:55:44;5.72;;;2.67;;
46551;SDS011;32278;51.810;4.712;2023-08-21T05:58:11;10.48;;;2.60;;
46551;SDS011;32278;51.810;4.712;2023-08-21T06:00:37;9.70;;;3.05;;
46551;SDS011;32278;51.810;4.712;2023-08-21T06:03:04;6.53;;;2.72;;
46551;SDS011;32278;51.810;4.712;2023-08-21T06:05:30;9.93;;;2.88;;
46551;SDS011;32278;51.810;4.712;2023-08-21T06:07:56;12.48;;;2.90;;
46551;SDS011;32278;51.810;4.712;2023-08-21T06:10:22;6.20;;;2.28;;
46551;SDS011;32278;51.810;4.712;2023-08-21T06:12:48;8.18;;;2.60;;
46551;SDS011;32278;51.810;4.712;2023-08-21T06:15:15;5.63;;;2.55;;
46551;SDS011;32278;51.810;4.712;2023-08-21T06:17:41;9.93;;;2.95;;
46551;SDS011;32278;51.810;4.712;2023-08-21T06:20:07;11.35;;;2.95;;
46551;SDS011;32278;51.810;4.712;2023-08-21T06:22:34;11.48;;;2.88;;
46551;SDS011;32278;51.810;4.712;2023-08-21T06:25:00;10.98;;;3.05;;
46551;SDS011;32278;51.810;4.712;2023-08-21T06:27:26;11.77;;;3.13;;
46551;SDS011;32278;51.810;4.712;2023-08-21T06:29:52;10.50;;;2.63;;
46551;SDS011;32278;51.810;4.712;2023-08-21T06:32:18;8.50;;;2.95;;
46551;SDS011;32278;51.810;4.712;2023-08-21T06:34:44;17.20;;;3.05;;
46551;SDS011;32278;51.810;4.712;2023-08-21T06:37:10;9.70;;;3.35;;
46551;SDS011;32278;51.810;4.712;2023-08-21T06:39:37;7.60;;;2.75;;
46551;SDS011;32278;51.810;4.712;2023-08-21T06:42:03;13.07;;;3.17;;
46551;SDS011;32278;51.810;4.712;2023-08-21T06:44:30;11.43;;;3.08;;
46551;SDS011;32278;51.810;4.712;2023-08-21T06:46:56;10.35;;;2.72;;
46551;SDS011;32278;51.810;4.712;2023-08-21T06:49:22;8.98;;;3.00;;
46551;SDS011;32278;51.810;4.712;2023-08-21T06:51:48;10.25;;;2.72;;
46551;SDS011;32278;51.810;4.712;2023-08-21T06:54:14;12.95;;;2.75;;
46551;SDS011;32278;51.810;4.712;2023-08-21T06:56:41;11.27;;;2.50;;
46551;SDS011;32278;51.810;4.712;2023-08-21T06:59:07;10.00;;;3.60;;
46551;SDS011;32278;51.810;4.712;2023-08-21T07:01:33;10.18;;;2.90;;
46551;SDS011;32278;51.810;4.712;2023-08-21T07:03:59;12.15;;;3.17;;
46551;SDS011;32278;51.810;4.712;2023-08-21T07:06:27;9.95;;;3.15;;
46551;SDS011;32278;51.810;4.712;2023-08-21T07:08:53;6.97;;;2.33;;
46551;SDS011;32278;51.810;4.712;2023-08-21T07:11:19;8.05;;;2.50;;
46551;SDS011;32278;51.810;4.712;2023-08-21T07:13:45;8.48;;;2.63;;
46551;SDS011;32278;51.810;4.712;2023-08-21T07:16:11;17.75;;;3.95;;
46551;SDS011;32278;51.810;4.712;2023-08-21T07:18:37;9.48;;;2.67;;
46551;SDS011;32278;51.810;4.712;2023-08-21T07:21:04;8.32;;;2.60;;
46551;SDS011;32278;51.810;4.712;2023-08-21T07:23:33;12.40;;;2.83;;
46551;SDS011;32278;51.810;4.712;2023-08-21T07:25:59;13.07;;;2.70;;
46551;SDS011;32278;51.810;4.712;2023-08-21T07:28:25;10.70;;;2.35;;
46551;SDS011;32278;51.810;4.712;2023-08-21T07:30:55;7.43;;;2.20;;
46551;SDS011;32278;51.810;4.712;2023-08-21T07:33:21;16.27;;;2.72;;
46551;SDS011;32278;51.810;4.712;2023-08-21T07:35:47;8.98;;;2.83;;
46551;SDS011;32278;51.810;4.712;2023-08-21T07:38:13;10.90;;;3.13;;
46551;SDS011;32278;51.810;4.712;2023-08-21T07:40:39;5.82;;;2.05;;
46551;SDS011;32278;51.810;4.712;2023-08-21T07:43:05;10.75;;;2.63;;
46551;SDS011;32278;51.810;4.712;2023-08-21T07:45:31;9.88;;;2.70;;
46551;SDS011;32278;51.810;4.712;2023-08-21T07:47:57;7.55;;;2.45;;
46551;SDS011;32278;51.810;4.712;2023-08-21T07:50:23;7.50;;;2.00;;
46551;SDS011;32278;51.810;4.712;2023-08-21T07:52:49;9.35;;;2.70;;
46551;SDS011;32278;51.810;4.712;2023-08-21T07:55:15;14.30;;;2.78;;
46551;SDS011;32278;51.810;4.712;2023-08-21T07:57:41;10.15;;;2.97;;
46551;SDS011;32278;51.810;4.712;2023-08-21T08:00:07;9.70;;;2.40;;
46551;SDS011;32278;51.810;4.712;2023-08-21T08:02:34;9.82;;;2.20;;
46551;SDS011;32278;51.810;4.712;2023-08-21T08:05:00;9.10;;;2.35;;
46551;SDS011;32278;51.810;4.712;2023-08-21T08:07:26;17.27;;;2.85;;
46551;SDS011;32278;51.810;4.712;2023-08-21T08:09:52;10.05;;;2.40;;
46551;SDS011;32278;51.810;4.712;2023-08-21T08:12:18;9.13;;;1.95;;
46551;SDS011;32278;51.810;4.712;2023-08-21T08:14:44;6.93;;;1.80;;
46551;SDS011;32278;51.810;4.712;2023-08-21T08:17:11;7.60;;;2.25;;
46551;SDS011;32278;51.810;4.712;2023-08-21T08:19:37;4.75;;;1.70;;
46551;SDS011;32278;51.810;4.712;2023-08-21T08:22:03;5.47;;;1.85;;
46551;SDS011;32278;51.810;4.712;2023-08-21T08:24:29;5.93;;;2.15;;
46551;SDS011;32278;51.810;4.712;2023-08-21T08:26:55;7.32;;;2.30;;
46551;SDS011;32278;51.810;4.712;2023-08-21T08:29:22;9.30;;;2.25;;
46551;SDS011;32278;51.810;4.712;2023-08-21T08:31:48;8.90;;;1.75;;
46551;SDS011;32278;51.810;4.712;2023-08-21T08:34:14;9.85;;;2.47;;
46551;SDS011;32278;51.810;4.712;2023-08-21T08:36:43;13.15;;;2.15;;
46551;SDS011;32278;51.810;4.712;2023-08-21T08:39:08;7.75;;;2.13;;
46551;SDS011;32278;51.810;4.712;2023-08-21T08:41:42;5.22;;;2.20;;
46551;SDS011;32278;51.810;4.712;2023-08-21T08:44:09;7.68;;;1.55;;
46551;SDS011;32278;51.810;4.712;2023-08-21T08:46:36;8.43;;;1.88;;
46551;SDS011;32278;51.810;4.712;2023-08-21T08:49:03;12.80;;;2.80;;
46551;SDS011;32278;51.810;4.712;2023-08-21T08:51:29;11.00;;;2.60;;
46551;SDS011;32278;51.810;4.712;2023-08-21T08:53:56;9.35;;;2.05;;
46551;SDS011;32278;51.810;4.712;2023-08-21T08:56:23;9.27;;;1.70;;
46551;SDS011;32278;51.810;4.712;2023-08-21T08:58:50;12.30;;;2.25;;
46551;SDS011;32278;51.810;4.712;2023-08-21T09:01:16;8.57;;;2.45;;
46551;SDS011;32278;51.810;4.712;2023-08-21T09:03:42;10.13;;;2.40;;
46551;SDS011;32278;51.810;4.712;2023-08-21T09:06:08;9.98;;;1.70;;
46551;SDS011;32278;51.810;4.712;2023-08-21T09:08:34;4.90;;;1.73;;
46551;SDS011;32278;51.810;4.712;2023-08-21T09:11:01;5.93;;;1.38;;
46551;SDS011;32278;51.810;4.712;2023-08-21T09:13:30;6.10;;;1.65;;
46551;SDS011;32278;51.810;4.712;2023-08-21T09:15:56;6.18;;;1.85;;
46551;SDS011;32278;51.810;4.712;2023-08-21T09:18:22;10.88;;;1.75;;
46551;SDS011;32278;51.810;4.712;2023-08-21T09:20:48;8.20;;;2.40;;
46551;SDS011;32278;51.810;4.712;2023-08-21T09:23:15;5.18;;;1.70;;
46551;SDS011;32278;51.810;4.712;2023-08-21T09:25:46;6.28;;;1.70;;
46551;SDS011;32278;51.810;4.712;2023-08-21T09:28:13;8.68;;;1.85;;
46551;SDS011;32278;51.810;4.712;2023-08-21T09:30:49;7.53;;;1.92;;
46551;SDS011;32278;51.810;4.712;2023-08-21T09:33:18;11.25;;;2.03;;
46551;SDS011;32278;51.810;4.712;2023-08-21T09:35:44;3.95;;;1.40;;
46551;SDS011;32278;51.810;4.712;2023-08-21T09:38:11;9.25;;;1.40;;
46551;SDS011;32278;51.810;4.712;2023-08-21T09:40:40;7.75;;;1.90;;
46551;SDS011;32278;51.810;4.712;2023-08-21T09:43:07;7.40;;;1.75;;
46551;SDS011;32278;51.810;4.712;2023-08-21T09:45:34;6.13;;;1.52;;
46551;SDS011;32278;51.810;4.712;2023-08-21T09:48:00;9.32;;;2.00;;
46551;SDS011;32278;51.810;4.712;2023-08-21T09:50:28;8.00;;;1.42;;
46551;SDS011;32278;51.810;4.712;2023-08-21T09:52:54;8.23;;;1.60;;
46551;SDS011;32278;51.810;4.712;2023-08-21T09:55:21;8.77;;;2.13;;
46551;SDS011;32278;51.810;4.712;2023-08-21T09:57:48;10.07;;;1.90;;
46551;SDS011;32278;51.810;4.712;2023-08-21T10:00:22;9.13;;;1.88;;
46551;SDS011;32278;51.810;4.712;2023-08-21T10:02:51;7.07;;;1.75;;
46551;SDS011;32278;51.810;4.712;2023-08-21T10:05:17;2.97;;;1.02;;
46551;SDS011;32278;51.810;4.712;2023-08-21T10:07:43;3.10;;;1.13;;
46551;SDS011;32278;51.810;4.712;2023-08-21T10:10:10;5.50;;;1.30;;
46551;SDS011;32278;51.810;4.712;2023-08-21T10:12:37;3.42;;;1.20;;
46551;SDS011;32278;51.810;4.712;2023-08-21T10:15:03;5.78;;;1.33;;
46551;SDS011;32278;51.810;4.712;2023-08-21T10:17:30;5.57;;;1.20;;
46551;SDS011;32278;51.810;4.712;2023-08-21T10:20:02;4.75;;;1.10;;
46551;SDS011;32278;51.810;4.712;2023-08-21T10:22:38;8.47;;;1.57;;
46551;SDS011;32278;51.810;4.712;2023-08-21T10:25:13;3.28;;;1.17;;
46551;SDS011;32278;51.810;4.712;2023-08-21T10:27:40;13.52;;;2.15;;
46551;SDS011;32278;51.810;4.712;2023-08-21T10:30:12;11.60;;;1.83;;
46551;SDS011;32278;51.810;4.712;2023-08-21T10:32:43;3.60;;;1.00;;
46551;SDS011;32278;51.810;4.712;2023-08-21T10:35:13;3.33;;;1.00;;
46551;SDS011;32278;51.810;4.712;2023-08-21T10:40:25;3.80;;;1.30;;
46551;SDS011;32278;51.810;4.712;2023-08-21T10:42:51;4.38;;;1.20;;
46551;SDS011;32278;51.810;4.712;2023-08-21T10:45:17;2.00;;;0.85;;
46551;SDS011;32278;51.810;4.712;2023-08-21T10:47:43;4.82;;;2.00;;
46551;SDS011;32278;51.810;4.712;2023-08-21T10:50:12;8.02;;;2.10;;
46551;SDS011;32278;51.810;4.712;2023-08-21T10:52:38;4.05;;;1.45;;
46551;SDS011;32278;51.810;4.712;2023-08-21T10:55:07;3.50;;;1.20;;
46551;SDS011;32278;51.810;4.712;2023-08-21T10:57:34;6.25;;;1.25;;
46551;SDS011;32278;51.810;4.712;2023-08-21T11:02:29;3.63;;;1.48;;
46551;SDS011;32278;51.810;4.712;2023-08-21T11:04:55;6.28;;;1.63;;
46551;SDS011;32278;51.810;4.712;2023-08-21T11:07:22;3.22;;;1.20;;
46551;SDS011;32278;51.810;4.712;2023-08-21T11:09:48;5.15;;;1.42;;
46551;SDS011;32278;51.810;4.712;2023-08-21T11:12:15;3.63;;;1.20;;
46551;SDS011;32278;51.810;4.712;2023-08-21T11:14:42;10.63;;;1.77;;
46551;SDS011;32278;51.810;4.712;2023-08-21T11:17:08;3.88;;;1.70;;
46551;SDS011;32278;51.810;4.712;2023-08-21T11:19:35;4.43;;;1.50;;
46551;SDS011;32278;51.810;4.712;2023-08-21T11:22:01;4.43;;;1.20;;
46551;SDS011;32278;51.810;4.712;2023-08-21T11:24:40;4.97;;;1.58;;
46551;SDS011;32278;51.810;4.712;2023-08-21T11:27:07;4.78;;;1.40;;
46551;SDS011;32278;51.810;4.712;2023-08-21T11:29:38;5.03;;;1.10;;
46551;SDS011;32278;51.810;4.712;2023-08-21T11:32:10;5.45;;;1.20;;
46551;SDS011;32278;51.810;4.712;2023-08-21T11:34:36;6.25;;;1.40;;
46551;SDS011;32278;51.810;4.712;2023-08-21T11:37:03;3.30;;;1.20;;
46551;SDS011;32278;51.810;4.712;2023-08-21T11:39:40;2.97;;;1.27;;
46551;SDS011;32278;51.810;4.712;2023-08-21T11:42:13;7.10;;;0.90;;
46551;SDS011;32278;51.810;4.712;2023-08-21T11:44:58;4.20;;;1.25;;
46551;SDS011;32278;51.810;4.712;2023-08-21T11:47:26;2.83;;;1.23;;
46551;SDS011;32278;51.810;4.712;2023-08-21T11:49:55;3.92;;;1.15;;
46551;SDS011;32278;51.810;4.712;2023-08-21T11:52:22;4.70;;;1.10;;
46551;SDS011;32278;51.810;4.712;2023-08-21T11:54:51;4.57;;;1.40;;
46551;SDS011;32278;51.810;4.712;2023-08-21T11:57:17;4.38;;;1.30;;
46551;SDS011;32278;51.810;4.712;2023-08-21T11:59:48;1.90;;;1.17;;
46551;SDS011;32278;51.810;4.712;2023-08-21T12:04:41;4.63;;;1.33;;
46551;SDS011;32278;51.810;4.712;2023-08-21T12:07:07;4.78;;;1.23;;
46551;SDS011;32278;51.810;4.712;2023-08-21T12:09:33;2.38;;;1.13;;
46551;SDS011;32278;51.810;4.712;2023-08-21T12:11:59;2.63;;;1.10;;
46551;SDS011;32278;51.810;4.712;2023-08-21T12:14:27;2.42;;;1.00;;
46551;SDS011;32278;51.810;4.712;2023-08-21T12:16:53;2.58;;;1.33;;
46551;SDS011;32278;51.810;4.712;2023-08-21T12:19:19;9.60;;;1.48;;
46551;SDS011;32278;51.810;4.712;2023-08-21T12:21:46;1.73;;;0.98;;
46551;SDS011;32278;51.810;4.712;2023-08-21T12:24:12;4.00;;;1.25;;
46551;SDS011;32278;51.810;4.712;2023-08-21T12:26:38;6.90;;;1.05;;
46551;SDS011;32278;51.810;4.712;2023-08-21T12:29:04;5.07;;;1.27;;
46551;SDS011;32278;51.810;4.712;2023-08-21T12:31:30;6.03;;;1.50;;
46551;SDS011;32278;51.810;4.712;2023-08-21T12:33:56;2.58;;;1.10;;
46551;SDS011;32278;51.810;4.712;2023-08-21T12:36:23;6.78;;;1.23;;
46551;SDS011;32278;51.810;4.712;2023-08-21T12:38:49;2.67;;;1.25;;
46551;SDS011;32278;51.810;4.712;2023-08-21T12:41:15;5.78;;;1.15;;
46551;SDS011;32278;51.810;4.712;2023-08-21T12:43:41;1.15;;;0.73;;
46551;SDS011;32278;51.810;4.712;2023-08-21T12:46:07;2.28;;;0.75;;
46551;SDS011;32278;51.810;4.712;2023-08-21T12:48:33;3.42;;;1.35;;
46551;SDS011;32278;51.810;4.712;2023-08-21T12:50:59;3.08;;;0.90;;
46551;SDS011;32278;51.810;4.712;2023-08-21T12:53:25;5.57;;;1.20;;
46551;SDS011;32278;51.810;4.712;2023-08-21T12:55:51;5.25;;;1.15;;
46551;SDS011;32278;51.810;4.712;2023-08-21T12:58:17;3.72;;;0.85;;
46551;SDS011;32278;51.810;4.712;2023-08-21T13:00:43;5.85;;;0.95;;
46551;SDS011;32278;51.810;4.712;2023-08-21T13:03:09;3.90;;;1.30;;
46551;SDS011;32278;51.810;4.712;2023-08-21T13:05:35;3.83;;;1.00;;
46551;SDS011;32278;51.810;4.712;2023-08-21T13:08:02;1.95;;;0.98;;
46551;SDS011;32278;51.810;4.712;2023-08-21T13:10:28;4.40;;;1.10;;
46551;SDS011;32278;51.810;4.712;2023-08-21T13:12:54;3.55;;;0.77;;
46551;SDS011;32278;51.810;4.712;2023-08-21T13:15:20;3.55;;;0.77;;
46551;SDS011;32278;51.810;4.712;2023-08-21T13:17:46;1.23;;;0.73;;
46551;SDS011;32278;51.810;4.712;2023-08-21T13:20:11;2.17;;;1.05;;
46551;SDS011;32278;51.810;4.712;2023-08-21T13:22:44;2.90;;;0.98;;
46551;SDS011;32278;51.810;4.712;2023-08-21T13:25:11;4.18;;;1.23;;
46551;SDS011;32278;51.810;4.712;2023-08-21T13:27:37;4.68;;;0.95;;
46551;SDS011;32278;51.810;4.712;2023-08-21T13:30:03;5.63;;;1.13;;
46551;SDS011;32278;51.810;4.712;2023-08-21T13:32:30;4.22;;;1.00;;
46551;SDS011;32278;51.810;4.712;2023-08-21T13:34:56;3.03;;;0.70;;
46551;SDS011;32278;51.810;4.712;2023-08-21T13:37:22;4.32;;;1.05;;
46551;SDS011;32278;51.810;4.712;2023-08-21T13:39:48;4.20;;;1.30;;
46551;SDS011;32278;51.810;4.712;2023-08-21T13:42:14;4.68;;;1.27;;
46551;SDS011;32278;51.810;4.712;2023-08-21T13:44:40;2.33;;;0.80;;
46551;SDS011;32278;51.810;4.712;2023-08-21T13:47:06;11.25;;;1.02;;
46551;SDS011;32278;51.810;4.712;2023-08-21T13:49:32;4.93;;;1.10;;
46551;SDS011;32278;51.810;4.712;2023-08-21T13:51:58;1.92;;;0.85;;
46551;SDS011;32278;51.810;4.712;2023-08-21T13:54:24;4.30;;;1.08;;
46551;SDS011;32278;51.810;4.712;2023-08-21T13:56:50;1.55;;;0.75;;
46551;SDS011;32278;51.810;4.712;2023-08-21T13:59:16;4.95;;;0.90;;
46551;SDS011;32278;51.810;4.712;2023-08-21T14:01:42;4.38;;;1.30;;
46551;SDS011;32278;51.810;4.712;2023-08-21T14:04:08;1.17;;;0.85;;
46551;SDS011;32278;51.810;4.712;2023-08-21T14:06:34;5.57;;;0.80;;
46551;SDS011;32278;51.810;4.712;2023-08-21T14:09:00;2.95;;;1.00;;
46551;SDS011;32278;51.810;4.712;2023-08-21T14:11:26;4.10;;;1.05;;
46551;SDS011;32278;51.810;4.712;2023-08-21T14:13:52;3.33;;;1.10;;
46551;SDS011;32278;51.810;4.712;2023-08-21T14:16:18;6.00;;;1.10;;
46551;SDS011;32278;51.810;4.712;2023-08-21T14:18:44;6.38;;;1.20;;
46551;SDS011;32278;51.810;4.712;2023-08-21T14:21:10;3.30;;;0.95;;
46551;SDS011;32278;51.810;4.712;2023-08-21T14:23:36;3.90;;;1.08;;
46551;SDS011;32278;51.810;4.712;2023-08-21T14:26:04;2.10;;;0.85;;
46551;SDS011;32278;51.810;4.712;2023-08-21T14:28:30;2.35;;;1.00;;
46551;SDS011;32278;51.810;4.712;2023-08-21T14:30:56;4.03;;;1.00;;
46551;SDS011;32278;51.810;4.712;2023-08-21T14:33:22;2.78;;;1.10;;
46551;SDS011;32278;51.810;4.712;2023-08-21T14:35:48;1.42;;;0.80;;
46551;SDS011;32278;51.810;4.712;2023-08-21T14:38:14;5.60;;;0.93;;
46551;SDS011;32278;51.810;4.712;2023-08-21T14:40:41;5.32;;;1.00;;
46551;SDS011;32278;51.810;4.712;2023-08-21T14:43:07;3.10;;;0.68;;
46551;SDS011;32278;51.810;4.712;2023-08-21T14:45:33;5.43;;;0.90;;
46551;SDS011;32278;51.810;4.712;2023-08-21T14:47:59;2.45;;;0.85;;
46551;SDS011;32278;51.810;4.712;2023-08-21T14:50:25;3.33;;;1.00;;
46551;SDS011;32278;51.810;4.712;2023-08-21T14:52:51;3.20;;;1.10;;